Airfield :
LOGIN :

Register | Disclaimer

   EN    FR    IT 

 










Legend :    VFR   Marginal VFR   IFR   Intensive IFR   Very Intensive IFR
Visi :
Ceiling :
>= 8 km
>= 3000ft
5 to 8 km
1000 to 3000 ft
1500m to 5 km
500 to 1000 ft
800 to 1500m
200 to 500 ft
< 800m
< 200 ft
Symbols :   Thunderstorms  Fog  Heavy snow  Heavy precipitations  Wind > 20 kt
SIGMETs :     Misc.  Thunderstorms  Icing  Turbulence  Mountain Waves  Volcanic Ashes







- Airport Elevation : 909 ft
- IATA code : KSF


EDVK - Kassel Calden

CURRENT METAR :
  • 231750Z 19010KT 9999 FEW022 BKN044 06/03 Q1020

EXPIRED METARs :
  • 231720Z 18010KT 9999 FEW024 BKN044 06/03 Q1021
  • 231650Z 18007KT 140V200 CAVOK 05/03 Q1021
  • 231620Z 17008KT 9999 SCT036 05/03 Q1021
  • 231550Z 19009KT 9999 BKN036 06/03 Q1021
  • 231520Z 19008KT 9999 BKN034 06/03 Q1021

TAF TAF EDVK
Valid from the 23 at 18:00 until the 24 at 03:00 UTC


231700Z 2318/2403 18008KT 9999 BKN035
BECMG 2318/2321 20013KT
No reported NOTAMs for that airfield.



MET'MAP, your aeronautical weather chart ! - Copyright ORBIFLY December 2007 - Disclaimer

ORBIFLY MET'MAP TEAM :

Programming & Development : Alexandra Zaïnal
Concept & Development : Baudouin d'Aumeries
Co-Development & Prog : Marc-Olivier Méhu
Technical & hardware support : Manuel Goepfert

Contact : metmap@orbifly.com




SOURCES & CREDITS :

   NOAA